Time,TemperatureF,DewpointF,PressureIn,WindDirection,WindDirectionDegrees,WindSpeedMPH,WindSpeedGustMPH,Humidity,HourlyPrecipIn,Conditions,Clouds,dailyrainin,SoftwareType,DateUTC
2013-10-10 00:23:00,61.0,-99.9,29.92,SE,141,0.0,0.0,-999,0.00,,,0.00,,2013-10-10 05:23:00,
2013-10-10 00:43:00,61.0,-99.9,29.92,ESE,110,2.0,0.0,-999,0.00,,,0.00,,2013-10-10 05:43:00,
2013-10-10 00:53:00,61.0,-99.9,29.92,ESE,110,0.0,0.0,-999,0.00,,,0.00,,2013-10-10 05:53:00,
2013-10-10 01:13:00,62.0,-99.9,29.91,SE,139,3.0,5.0,-999,0.00,,,0.00,,2013-10-10 06:13:00,
2013-10-10 01:22:00,61.0,-99.9,29.91,SE,131,2.0,3.0,-999,0.00,,,0.00,,2013-10-10 06:22:00,
2013-10-10 01:43:00,60.0,-99.9,29.91,ESE,104,0.0,0.0,-999,0.00,,,0.00,,2013-10-10 06:43:00,
2013-10-10 01:53:00,61.0,-99.9,29.91,SE,131,0.0,0.0,-999,0.00,,,0.00,,2013-10-10 06:53:00,
2013-10-10 02:11:00,61.0,-99.9,29.91,ESE,118,0.0,0.0,-999,0.00,,,0.00,,2013-10-10 07:11:00,
2013-10-10 02:22:00,61.0,-99.9,29.91,ESE,115,3.0,3.0,-999,0.00,,,0.00,,2013-10-10 07:22:00,
2013-10-10 02:42:00,59.0,-99.9,29.91,ESE,104,0.0,0.0,-999,0.00,,,0.00,,2013-10-10 07:42:00,
2013-10-10 02:52:00,58.0,-99.9,29.91,ESE,104,0.0,0.0,-999,0.00,,,0.00,,2013-10-10 07:52:00,
2013-10-10 03:11:00,59.0,-99.9,29.91,SE,127,4.0,5.0,-999,0.00,,,0.00,,2013-10-10 08:11:00,
2013-10-10 03:22:00,59.0,-99.9,29.91,SE,132,3.0,3.0,-999,0.00,,,0.00,,2013-10-10 08:22:00,
2013-10-10 03:43:00,59.0,-99.9,29.91,ESE,107,5.0,5.0,-999,0.00,,,0.00,,2013-10-10 08:43:00,
2013-10-10 03:52:00,59.0,-99.9,29.91,East,84,4.0,4.0,-999,0.00,,,0.00,,2013-10-10 08:52:00,
2013-10-10 04:22:00,57.0,-99.9,29.91,East,79,3.0,3.0,-999,0.00,,,0.00,,2013-10-10 09:22:00,
2013-10-10 04:43:00,57.0,-99.9,29.91,NE,55,2.0,2.0,-999,0.00,,,0.00,,2013-10-10 09:43:00,
2013-10-10 04:54:00,56.0,-99.9,29.91,NE,52,1.0,1.0,-999,0.00,,,0.00,,2013-10-10 09:54:00,
2013-10-10 05:23:00,56.0,-99.9,29.90,SE,134,4.0,5.0,-999,0.00,,,0.00,,2013-10-10 10:23:00,
2013-10-10 05:43:00,56.0,-99.9,29.90,East,93,3.0,3.0,-999,0.00,,,0.00,,2013-10-10 10:43:00,
2013-10-10 05:53:00,55.0,-99.9,29.91,ENE,77,0.0,1.0,-999,0.00,,,0.00,,2013-10-10 10:53:00,
2013-10-10 06:22:00,57.0,-99.9,29.91,SE,131,3.0,4.0,-999,0.00,,,0.00,,2013-10-10 11:22:00,
2013-10-10 06:42:00,60.0,-99.9,29.91,ESE,122,4.0,4.0,-999,0.00,,,0.00,,2013-10-10 11:42:00,
2013-10-10 06:58:00,60.0,-99.9,29.92,SE,143,2.0,3.0,-999,0.00,,,0.00,,2013-10-10 11:58:00,
2013-10-10 07:12:00,61.0,-99.9,29.92,SSE,152,3.0,4.0,-999,0.00,,,0.00,,2013-10-10 12:12:00,
2013-10-10 07:21:00,62.0,-99.9,29.91,ESE,111,1.0,0.0,-999,0.00,,,0.00,,2013-10-10 12:21:00,
2013-10-10 07:42:00,60.0,-99.9,29.91,North,4,3.0,3.0,-999,0.00,,,0.00,,2013-10-10 12:42:00,
2013-10-10 07:52:00,61.0,-99.9,29.92,NNE,30,0.0,0.0,-999,0.00,,,0.00,,2013-10-10 12:52:00,
2013-10-10 08:12:00,63.0,-99.9,29.92,NNE,30,0.0,0.0,-999,0.00,,,0.00,,2013-10-10 13:12:00,
2013-10-10 08:21:00,64.0,-99.9,29.92,NNE,30,0.0,0.0,-999,0.00,,,0.00,,2013-10-10 13:21:00,
2013-10-10 08:42:00,66.0,-99.9,29.92,South,177,5.0,6.0,-999,0.00,,,0.00,,2013-10-10 13:42:00,
2013-10-10 08:52:00,67.0,-99.9,29.93,SSE,167,5.0,5.0,-999,0.00,,,0.00,,2013-10-10 13:52:00,
2013-10-10 09:11:00,68.0,-99.9,29.93,South,172,10.0,10.0,-999,0.00,,,0.00,,2013-10-10 14:11:00,
2013-10-10 09:22:00,69.0,-99.9,29.93,South,190,8.0,9.0,-999,0.00,,,0.00,,2013-10-10 14:22:00,
2013-10-10 09:42:00,70.0,-99.9,29.93,SSE,158,8.0,8.0,-999,0.00,,,0.00,,2013-10-10 14:42:00,
2013-10-10 09:52:00,72.0,-99.9,29.94,SSE,159,12.0,15.0,-999,0.00,,,0.00,,2013-10-10 14:52:00,
2013-10-10 10:11:00,71.0,-99.9,29.94,SSE,165,9.0,10.0,-999,0.00,,,0.00,,2013-10-10 15:11:00,
2013-10-10 10:22:00,75.0,-99.9,29.93,SSE,153,7.0,7.0,-999,0.00,,,0.00,,2013-10-10 15:22:00,
2013-10-10 10:54:00,76.0,-99.9,29.93,SE,141,14.0,14.0,-999,0.00,,,0.00,,2013-10-10 15:54:00,
2013-10-10 11:23:00,75.0,-99.9,29.93,South,176,9.0,9.0,-999,0.00,,,0.00,,2013-10-10 16:23:00,
2013-10-10 11:42:00,78.0,-99.9,29.92,SSW,210,9.0,10.0,-999,0.00,,,0.00,,2013-10-10 16:42:00,
2013-10-10 11:53:00,80.0,-99.9,29.91,SSW,195,8.0,8.0,-999,0.00,,,0.00,,2013-10-10 16:53:00,
2013-10-10 12:23:00,79.0,-99.9,29.91,SE,132,10.0,16.0,-999,0.00,,,0.00,,2013-10-10 17:23:00,
2013-10-10 12:42:00,80.0,-99.9,29.90,SSE,160,6.0,12.0,-999,0.00,,,0.00,,2013-10-10 17:42:00,
2013-10-10 12:53:00,82.0,-99.9,29.89,South,187,9.0,12.0,-999,0.00,,,0.00,,2013-10-10 17:53:00,
2013-10-10 13:12:00,81.0,-99.9,29.89,SSE,160,8.0,8.0,-999,0.00,,,0.00,,2013-10-10 18:12:00,
2013-10-10 13:22:00,83.0,-99.9,29.87,SSE,156,5.0,9.0,-999,0.00,,,0.00,,2013-10-10 18:22:00,
2013-10-10 13:42:00,82.0,-99.9,29.86,South,186,10.0,10.0,-999,0.00,,,0.00,,2013-10-10 18:42:00,
2013-10-10 13:52:00,84.0,-99.9,29.86,SSW,208,6.0,8.0,-999,0.00,,,0.00,,2013-10-10 18:52:00,
2013-10-10 14:11:00,84.0,-99.9,29.84,South,188,8.0,9.0,-999,0.00,,,0.00,,2013-10-10 19:11:00,
2013-10-10 14:22:00,82.0,-99.9,29.83,South,191,7.0,7.0,-999,0.00,,,0.00,,2013-10-10 19:22:00,
2013-10-10 14:42:00,83.0,-99.9,29.82,SSE,158,12.0,14.0,-999,0.00,,,0.00,,2013-10-10 19:42:00,
2013-10-10 14:53:00,85.0,-99.9,29.81,SSE,150,9.0,15.0,-999,0.00,,,0.00,,2013-10-10 19:53:00,
2013-10-10 15:22:00,86.0,-99.9,29.80,SSE,156,9.0,17.0,-999,0.00,,,0.00,,2013-10-10 20:22:00,
2013-10-10 15:42:00,86.0,-99.9,29.78,SE,146,7.0,11.0,-999,0.00,,,0.00,,2013-10-10 20:42:00,
2013-10-10 15:52:00,85.0,-99.9,29.78,SSE,150,10.0,14.0,-999,0.00,,,0.00,,2013-10-10 20:52:00,
2013-10-10 16:22:00,86.0,-99.9,29.78,SE,146,7.0,12.0,-999,0.00,,,0.00,,2013-10-10 21:22:00,
2013-10-10 16:44:00,85.0,-99.9,29.77,SSE,156,11.0,11.0,-999,0.00,,,0.00,,2013-10-10 21:44:00,
2013-10-10 16:54:00,85.0,-99.9,29.76,SSE,149,10.0,13.0,-999,0.00,,,0.00,,2013-10-10 21:54:00,
2013-10-10 17:24:00,85.0,-99.9,29.76,South,187,10.0,14.0,-999,0.00,,,0.00,,2013-10-10 22:24:00,
2013-10-10 17:43:00,84.0,-99.9,29.75,SE,142,12.0,12.0,-999,0.00,,,0.00,,2013-10-10 22:43:00,
2013-10-10 17:53:00,84.0,-99.9,29.74,SE,138,13.0,14.0,-999,0.00,,,0.00,,2013-10-10 22:53:00,
2013-10-10 18:23:00,83.0,-99.9,29.74,SSE,160,10.0,13.0,-999,0.00,,,0.00,,2013-10-10 23:23:00,
2013-10-10 18:53:00,82.0,-99.9,29.73,SSE,167,12.0,12.0,-999,0.00,,,0.00,,2013-10-10 23:53:00,
2013-10-10 19:11:00,81.0,-99.9,29.73,SE,142,13.0,13.0,-999,0.00,,,0.00,,2013-10-11 00:11:00,
2013-10-10 19:22:00,80.0,-99.9,29.74,SSE,159,11.0,13.0,-999,0.00,,,0.00,,2013-10-11 00:22:00,
2013-10-10 19:42:00,79.0,-99.9,29.74,South,169,9.0,9.0,-999,0.00,,,0.00,,2013-10-11 00:42:00,
2013-10-10 19:52:00,77.0,-99.9,29.75,SE,132,7.0,8.0,-999,0.00,,,0.00,,2013-10-11 00:52:00,
2013-10-10 20:12:00,77.0,-99.9,29.75,SSE,165,8.0,8.0,-999,0.00,,,0.00,,2013-10-11 01:12:00,
2013-10-10 20:22:00,77.0,-99.9,29.75,SSE,160,8.0,8.0,-999,0.00,,,0.00,,2013-10-11 01:22:00,
2013-10-10 20:42:00,74.0,-99.9,29.76,SE,146,3.0,3.0,-999,0.00,,,0.00,,2013-10-11 01:42:00,
2013-10-10 20:52:00,72.0,-99.9,29.76,SE,129,4.0,5.0,-999,0.00,,,0.00,,2013-10-11 01:52:00,
2013-10-10 21:12:00,72.0,-99.9,29.77,SE,141,5.0,5.0,-999,0.00,,,0.00,,2013-10-11 02:12:00,
2013-10-10 21:22:00,73.0,-99.9,29.77,SE,139,4.0,4.0,-999,0.00,,,0.00,,2013-10-11 02:22:00,
2013-10-10 21:42:00,72.0,-99.9,29.78,SSE,156,3.0,5.0,-999,0.00,,,0.00,,2013-10-11 02:42:00,
2013-10-10 21:52:00,72.0,-99.9,29.78,SSE,152,5.0,6.0,-999,0.00,,,0.00,,2013-10-11 02:52:00,
2013-10-10 22:23:00,71.0,-99.9,29.79,SSE,156,3.0,5.0,-999,0.00,,,0.00,,2013-10-11 03:23:00,
2013-10-10 22:45:00,70.0,-99.9,29.79,ESE,117,5.0,5.0,-999,0.00,,,0.00,,2013-10-11 03:45:00,
2013-10-10 22:54:00,70.0,-99.9,29.79,SSE,148,4.0,4.0,-999,0.00,,,0.00,,2013-10-11 03:54:00,
2013-10-10 23:24:00,70.0,-99.9,29.79,SSE,158,5.0,5.0,-999,0.00,,,0.00,,2013-10-11 04:24:00,
2013-10-10 23:44:00,69.0,-99.9,29.79,SSE,162,3.0,3.0,-999,0.00,,,0.00,,2013-10-11 04:44:00,
2013-10-10 23:53:00,69.0,-99.9,29.79,SSE,150,5.0,5.0,-999,0.00,,,0.00,,2013-10-11 04:53:00,